首页
METAR-TAF:

METAR-TAF

机场 :

那不勒斯國際機場

那不勒斯, 意大利

纬度: 40-51N, 经度: 014-18E, 海拔: 88米

当前天气观测

该预报发布于20分钟前的03:50 UTC
风速3节,风向东转东北
温度 12°C
湿度 88%
气压 1007 hPa
能见度10公里或以上
散云层高于3000英尺

METAR: LIRN 140350Z 06003KT 9999 SCT030 12/10 Q1007 NOSIG

时间: 05:10 (04:10 UTC)

预报

该预报发布于5小时和10分钟前的23:00 UTC
预报有效从14日的 00点(UTC)到 14日的 24点(UTC)
风速4节,风向多变
能见度10公里或以上
散云层高于3000英尺
短暂存在
从 14日的 03点(UTC)到 14日的 09点(UTC)
能見度: 4000
阵雨
短暂存在
从 14日的 09点(UTC)到 14日的 12点(UTC)
雷暴, 雨

TAF: LIRN 132300Z 1400/1424 VRB04KT 9999 SCT030 TEMPO 1403/1409 4000 SHRA TEMPO 1409/1412 TSRA

超过4000个机场的气象观测和天气预报(METAR&TAF报告)。

可查询的气象台以黄色和红色小点在地图上表示。

将鼠标移到小点上方,可查看气象台名称。

然后点击查看天气观测和预报。

如需切换地图:点击带黑十字的绿色按钮放大地图;点击带横线的绿色按钮缩小地图;或者点击绿色箭头查看邻近地区的地图。


METAR-TAF: